createdAt,value
2022-08-03T00:00:25.949Z,1.65
2022-08-03T00:02:52.498Z,1.70
2022-08-03T00:05:19.085Z,2.33
2022-08-03T00:07:46.099Z,1.48
2022-08-03T00:10:15.132Z,1.80
2022-08-03T00:12:41.737Z,1.50
2022-08-03T00:15:11.407Z,1.95
2022-08-03T00:17:53.408Z,1.80
2022-08-03T00:20:24.151Z,1.88
2022-08-03T00:25:18.162Z,2.25
2022-08-03T00:27:45.112Z,1.83
2022-08-03T00:30:11.950Z,2.25
2022-08-03T00:32:40.049Z,2.05
2022-08-03T00:35:20.439Z,1.90
2022-08-03T00:37:58.696Z,1.98
2022-08-03T00:40:25.535Z,2.00
2022-08-03T00:43:00.175Z,2.00
2022-08-03T00:45:29.451Z,1.85
2022-08-03T00:47:57.159Z,2.45
2022-08-03T00:50:25.482Z,2.00
2022-08-03T00:52:53.413Z,2.20
2022-08-03T00:55:20.681Z,2.20
2022-08-03T00:57:47.503Z,2.30
2022-08-03T01:00:17.312Z,2.30
2022-08-03T01:02:44.433Z,2.10
2022-08-03T01:05:11.331Z,2.40
2022-08-03T01:08:21.229Z,2.42
2022-08-03T01:11:09.160Z,2.13
2022-08-03T01:14:18.820Z,2.17
2022-08-03T01:16:59.295Z,2.20
2022-08-03T01:19:50.686Z,2.03
2022-08-03T01:22:40.545Z,2.30
2022-08-03T01:25:39.356Z,2.42
2022-08-03T01:28:12.061Z,2.70
2022-08-03T01:30:43.443Z,2.67
2022-08-03T01:33:17.768Z,2.47
2022-08-03T01:35:54.402Z,2.33
2022-08-03T01:38:28.753Z,2.88
2022-08-03T01:40:56.782Z,2.40
2022-08-03T01:44:28.174Z,2.42
2022-08-03T01:46:17.196Z,2.40
2022-08-03T01:48:46.346Z,2.22
2022-08-03T01:51:15.624Z,2.45
2022-08-03T01:53:43.495Z,2.30
2022-08-03T01:56:11.705Z,2.75
2022-08-03T01:58:40.609Z,2.80
2022-08-03T02:01:09.288Z,2.40
2022-08-03T02:04:00.878Z,2.50
2022-08-03T02:07:00.030Z,2.65
2022-08-03T02:09:17.396Z,2.70
2022-08-03T02:11:48.313Z,2.67
2022-08-03T02:14:16.164Z,2.83
2022-08-03T02:16:44.840Z,2.85
2022-08-03T02:19:12.216Z,2.90
2022-08-03T02:21:56.335Z,2.60
2022-08-03T02:24:26.309Z,2.70
2022-08-03T02:26:56.543Z,2.80
2022-08-03T02:29:39.909Z,2.40
2022-08-03T02:32:12.388Z,3.03
2022-08-03T02:34:41.951Z,2.63
2022-08-03T02:37:10.847Z,3.00
2022-08-03T02:39:41.021Z,2.65
2022-08-03T02:42:09.840Z,2.97
2022-08-03T02:44:40.411Z,2.70
2022-08-03T02:47:10.872Z,3.00
2022-08-03T02:49:50.584Z,2.70
2022-08-03T02:54:47.687Z,3.00
2022-08-03T02:57:15.456Z,3.80
2022-08-03T02:59:44.280Z,3.80
2022-08-03T03:02:12.150Z,4.03
2022-08-03T03:04:41.215Z,3.30
2022-08-03T03:07:27.118Z,3.80
2022-08-03T03:09:56.352Z,3.38
2022-08-03T03:12:24.351Z,3.88
2022-08-03T03:14:50.873Z,3.80
2022-08-03T03:17:18.604Z,3.92
2022-08-03T03:19:46.135Z,4.00
2022-08-03T03:22:15.420Z,3.53
2022-08-03T03:24:44.177Z,3.07
2022-08-03T03:27:10.873Z,3.90
2022-08-03T03:29:43.958Z,3.25
2022-08-03T03:32:10.712Z,3.42
2022-08-03T03:34:37.872Z,3.90
2022-08-03T03:37:05.422Z,3.40
2022-08-03T03:39:32.215Z,3.28
2022-08-03T03:42:00.902Z,3.55
2022-08-03T03:44:31.213Z,3.67
2022-08-03T03:49:24.844Z,3.75
2022-08-03T03:51:55.637Z,3.20
2022-08-03T03:54:22.377Z,3.83
2022-08-03T03:56:52.297Z,3.50
2022-08-03T03:59:18.916Z,3.50
2022-08-03T04:01:45.841Z,3.80
2022-08-03T04:04:31.209Z,3.05
2022-08-03T04:07:16.578Z,3.70
2022-08-03T04:10:14.632Z,3.45
2022-08-03T04:12:50.547Z,3.45
2022-08-03T04:15:21.495Z,3.88
2022-08-03T04:17:50.272Z,3.30
2022-08-03T04:20:19.460Z,4.05
2022-08-03T04:22:48.135Z,4.00
2022-08-03T04:25:19.319Z,4.20
2022-08-03T04:28:28.343Z,4.25
2022-08-03T04:30:37.625Z,3.75
2022-08-03T04:33:06.295Z,4.43
2022-08-03T04:36:02.090Z,3.90
2022-08-03T04:38:24.969Z,3.85
2022-08-03T04:40:52.857Z,4.25
2022-08-03T04:43:22.521Z,3.50
2022-08-03T04:45:50.317Z,4.13
2022-08-03T04:48:17.371Z,4.05
2022-08-03T04:50:44.407Z,4.88
2022-08-03T04:53:11.042Z,4.03
2022-08-03T04:55:37.577Z,4.50
2022-08-03T04:58:04.690Z,4.30
2022-08-03T05:00:31.317Z,4.63
2022-08-03T05:02:58.249Z,4.40
2022-08-03T05:05:24.819Z,4.13
2022-08-03T05:07:51.559Z,4.10
2022-08-03T05:10:19.665Z,4.75
2022-08-03T05:12:48.500Z,4.10
2022-08-03T05:15:16.099Z,4.10
2022-08-03T05:17:42.927Z,4.03
2022-08-03T05:20:10.219Z,3.88
2022-08-03T05:22:36.739Z,5.05
2022-08-03T05:25:03.973Z,3.65
2022-08-03T05:27:30.566Z,4.20
2022-08-03T05:29:57.093Z,3.63
2022-08-03T05:32:43.574Z,3.92
2022-08-03T05:36:01.258Z,4.10
2022-08-03T05:37:56.751Z,3.97
2022-08-03T05:40:23.808Z,4.07
2022-08-03T05:42:50.406Z,4.55
2022-08-03T05:45:20.026Z,4.22
2022-08-03T05:47:47.020Z,4.20
2022-08-03T05:50:14.290Z,4.32
2022-08-03T05:52:41.309Z,4.18
2022-08-03T05:55:09.286Z,4.30
2022-08-03T05:57:36.317Z,4.30
2022-08-03T06:00:12.519Z,3.90
2022-08-03T06:02:42.213Z,4.10
2022-08-03T06:05:09.341Z,3.95
2022-08-03T06:07:36.045Z,4.43
2022-08-03T06:10:36.898Z,3.60
2022-08-03T06:12:51.084Z,3.53
2022-08-03T06:15:20.278Z,3.75
2022-08-03T06:17:51.426Z,3.35
2022-08-03T06:20:19.371Z,4.05
2022-08-03T06:22:51.249Z,3.50
2022-08-03T06:25:27.239Z,3.58
2022-08-03T06:27:53.719Z,3.30
2022-08-03T06:30:21.428Z,4.10
2022-08-03T06:32:51.783Z,2.88
2022-08-03T06:35:19.090Z,4.13
2022-08-03T06:37:49.512Z,3.95
2022-08-03T06:42:51.205Z,3.92
2022-08-03T06:45:17.959Z,3.38
2022-08-03T06:47:44.605Z,4.10
2022-08-03T06:50:16.567Z,3.90
2022-08-03T06:52:44.510Z,3.90
2022-08-03T06:55:11.476Z,3.70
2022-08-03T06:57:38.237Z,3.53
2022-08-03T07:00:06.026Z,4.25
2022-08-03T07:02:35.348Z,3.67
2022-08-03T07:05:02.847Z,3.50
2022-08-03T07:07:29.411Z,3.20
2022-08-03T07:09:57.740Z,3.90
2022-08-03T07:12:26.254Z,3.55
2022-08-03T07:14:56.685Z,3.65
2022-08-03T07:17:27.294Z,3.50
2022-08-03T07:19:53.858Z,3.72
2022-08-03T07:22:20.347Z,3.55
2022-08-03T07:24:47.824Z,3.92
2022-08-03T07:27:16.387Z,3.85
2022-08-03T07:29:42.947Z,3.42
2022-08-03T07:32:09.656Z,3.60
2022-08-03T07:34:36.160Z,3.70
2022-08-03T07:37:02.836Z,3.40
2022-08-03T07:39:29.976Z,3.65
2022-08-03T07:41:56.652Z,3.30
2022-08-03T07:44:23.186Z,3.30
2022-08-03T07:46:50.905Z,3.50
2022-08-03T07:49:18.602Z,3.80
2022-08-03T07:51:45.570Z,3.30
2022-08-03T07:54:12.269Z,3.45
2022-08-03T07:56:39.200Z,3.53
2022-08-03T07:59:05.885Z,4.07
2022-08-03T08:01:36.041Z,3.08
2022-08-03T08:04:02.821Z,3.30
2022-08-03T08:06:29.345Z,3.40
2022-08-03T08:08:59.578Z,3.50
2022-08-03T08:11:26.083Z,3.00
2022-08-03T08:13:52.586Z,3.72
2022-08-03T08:16:19.267Z,3.42
2022-08-03T08:18:45.883Z,3.20
2022-08-03T08:21:12.451Z,4.00
2022-08-03T08:23:43.799Z,3.30
2022-08-03T08:26:12.318Z,3.58
2022-08-03T08:28:39.755Z,3.83
2022-08-03T08:31:06.901Z,3.47
2022-08-03T08:34:02.704Z,3.38
2022-08-03T08:36:21.413Z,3.25
2022-08-03T08:38:48.038Z,3.70
2022-08-03T08:41:15.350Z,3.53
2022-08-03T08:43:43.713Z,3.40
2022-08-03T08:46:23.515Z,2.70
2022-08-03T08:51:20.026Z,3.40
2022-08-03T08:53:52.516Z,3.50
2022-08-03T08:56:22.449Z,3.10
2022-08-03T08:58:52.187Z,3.05
2022-08-03T09:01:22.102Z,3.10
2022-08-03T09:03:48.745Z,3.08
2022-08-03T09:06:16.483Z,3.75
2022-08-03T09:08:43.854Z,3.30
2022-08-03T09:11:12.040Z,3.00
2022-08-03T09:13:39.082Z,3.05
2022-08-03T09:16:20.430Z,3.03
2022-08-03T09:18:52.840Z,3.55
2022-08-03T09:21:36.308Z,3.28
2022-08-03T09:24:08.463Z,3.30
2022-08-03T09:26:38.211Z,3.33
2022-08-03T09:29:14.400Z,3.08
2022-08-03T09:31:45.989Z,3.35
2022-08-03T09:34:15.116Z,3.22
2022-08-03T09:36:49.731Z,3.00
2022-08-03T09:39:18.479Z,3.20
2022-08-03T09:41:48.608Z,4.43
2022-08-03T09:44:25.483Z,4.13
2022-08-03T09:46:57.050Z,3.72
2022-08-03T09:49:25.864Z,3.38
2022-08-03T09:52:38.215Z,3.53
2022-08-03T09:54:41.185Z,2.92
2022-08-03T09:57:08.151Z,3.08
2022-08-03T09:59:35.007Z,3.38
2022-08-03T10:02:02.027Z,3.10
2022-08-03T10:04:28.760Z,3.83
2022-08-03T10:07:10.083Z,3.28
2022-08-03T10:09:37.659Z,3.03
2022-08-03T10:12:11.981Z,3.22
2022-08-03T10:14:41.760Z,3.10
2022-08-03T10:17:09.750Z,3.30
2022-08-03T10:19:36.704Z,2.80
2022-08-03T10:22:15.088Z,2.90
2022-08-03T10:25:07.091Z,2.72
2022-08-03T10:27:47.874Z,3.33
2022-08-03T10:30:14.664Z,3.40
2022-08-03T10:33:02.479Z,2.72
2022-08-03T10:35:30.265Z,2.70
2022-08-03T10:38:04.012Z,2.80
2022-08-03T10:40:48.285Z,3.03
2022-08-03T10:43:27.466Z,2.38
2022-08-03T10:45:55.614Z,3.15
2022-08-03T10:48:23.116Z,2.55
2022-08-03T10:50:50.621Z,3.42
2022-08-03T10:53:34.611Z,2.95
2022-08-03T10:56:26.626Z,3.00
2022-08-03T10:59:06.897Z,3.13
2022-08-03T11:01:58.868Z,3.03
2022-08-03T11:04:27.227Z,3.03
2022-08-03T11:07:23.623Z,2.75
2022-08-03T11:09:56.134Z,2.72
2022-08-03T11:12:33.574Z,2.60
2022-08-03T11:15:10.817Z,3.20
2022-08-03T11:17:45.805Z,2.88
2022-08-03T11:20:54.728Z,2.72
2022-08-03T11:24:04.631Z,2.40
2022-08-03T11:26:31.987Z,2.90
2022-08-03T11:29:31.138Z,2.97
2022-08-03T11:31:58.084Z,2.47
2022-08-03T11:34:25.168Z,2.80
2022-08-03T11:37:26.406Z,2.65
2022-08-03T11:39:57.186Z,2.42
2022-08-03T11:42:27.546Z,2.50
2022-08-03T11:44:56.048Z,2.95
2022-08-03T11:47:26.831Z,2.55
2022-08-03T11:50:00.449Z,2.65
2022-08-03T11:52:28.982Z,2.95
2022-08-03T11:54:56.961Z,2.35
2022-08-03T11:59:19.011Z,3.08
2022-08-03T12:00:32.735Z,3.17
2022-08-03T12:03:12.491Z,2.10
2022-08-03T12:05:51.325Z,2.50
2022-08-03T12:08:28.010Z,2.50
2022-08-03T12:10:56.443Z,2.60
2022-08-03T12:14:43.925Z,2.30
2022-08-03T12:16:10.760Z,2.90
2022-08-03T12:18:37.540Z,2.78
2022-08-03T12:21:14.427Z,2.67
2022-08-03T12:23:40.970Z,2.70
2022-08-03T12:26:09.850Z,2.42
2022-08-03T12:28:38.409Z,2.55
2022-08-03T12:31:13.329Z,2.10
2022-08-03T12:34:00.392Z,2.25
2022-08-03T12:36:28.536Z,2.45
2022-08-03T12:38:57.868Z,2.53
2022-08-03T12:41:40.907Z,2.30
2022-08-03T12:44:08.978Z,2.40
2022-08-03T12:46:45.352Z,2.22
2022-08-03T12:49:17.186Z,2.42
2022-08-03T12:51:43.751Z,1.67
2022-08-03T12:54:17.146Z,2.30
2022-08-03T12:57:01.486Z,1.77
2022-08-03T12:59:34.822Z,1.70
2022-08-03T13:02:04.559Z,2.22
2022-08-03T13:04:36.534Z,2.10
2022-08-03T13:07:14.328Z,2.50
2022-08-03T13:09:53.284Z,2.45
2022-08-03T13:12:25.286Z,2.65
2022-08-03T13:14:55.523Z,2.42
2022-08-03T13:17:22.328Z,2.40
2022-08-03T13:19:49.972Z,2.40
2022-08-03T13:22:30.542Z,2.13
2022-08-03T13:24:58.256Z,2.67
2022-08-03T13:28:04.148Z,2.50
2022-08-03T13:30:12.810Z,2.83
2022-08-03T13:32:41.823Z,2.65
2022-08-03T13:35:09.611Z,2.10
2022-08-03T13:37:36.541Z,2.80
2022-08-03T13:40:06.497Z,2.30
2022-08-03T13:42:35.091Z,2.53
2022-08-03T13:45:02.876Z,2.35
2022-08-03T13:47:29.607Z,2.80
2022-08-03T13:50:01.675Z,2.35
2022-08-03T13:52:30.757Z,2.40
2022-08-03T13:54:57.332Z,2.55
2022-08-03T13:58:02.613Z,2.55
2022-08-03T14:00:12.032Z,2.50
2022-08-03T14:02:38.782Z,2.50
2022-08-03T14:05:05.825Z,2.85
2022-08-03T14:07:34.506Z,2.30
2022-08-03T14:10:01.886Z,2.50
2022-08-03T14:12:29.850Z,2.83
2022-08-03T14:14:59.697Z,2.65
2022-08-03T14:17:27.924Z,2.70
2022-08-03T14:20:36.933Z,2.55
2022-08-03T14:22:56.286Z,2.38
2022-08-03T14:25:22.984Z,2.30
2022-08-03T14:27:49.539Z,2.40
2022-08-03T14:30:16.044Z,2.53
2022-08-03T14:32:42.855Z,2.20
2022-08-03T14:35:09.591Z,2.40
2022-08-03T14:37:36.104Z,2.30
2022-08-03T14:40:02.931Z,2.15
2022-08-03T14:42:29.628Z,2.47
2022-08-03T14:45:00.718Z,2.60
2022-08-03T14:47:30.084Z,2.45
2022-08-03T14:50:37.135Z,2.30
2022-08-03T14:52:43.229Z,2.42
2022-08-03T14:55:09.984Z,2.20
2022-08-03T14:57:36.480Z,2.20
2022-08-03T15:00:04.004Z,2.53
2022-08-03T15:02:30.654Z,2.70
2022-08-03T15:04:57.391Z,2.53
2022-08-03T15:07:23.996Z,2.60
2022-08-03T15:09:50.487Z,2.35
2022-08-03T15:12:17.205Z,2.40
2022-08-03T15:14:43.851Z,2.35
2022-08-03T15:17:10.580Z,2.47
2022-08-03T15:20:03.302Z,2.67
2022-08-03T15:22:25.125Z,2.30
2022-08-03T15:25:02.279Z,2.30
2022-08-03T15:27:28.992Z,2.63
2022-08-03T15:30:08.882Z,2.50
2022-08-03T15:32:36.994Z,2.60
2022-08-03T15:35:04.143Z,2.20
2022-08-03T15:37:30.681Z,2.20
2022-08-03T15:40:00.991Z,2.70
2022-08-03T15:42:29.926Z,3.13
2022-08-03T15:44:56.635Z,8.30
2022-08-03T15:47:23.308Z,3.53
2022-08-03T15:49:49.944Z,5.50
2022-08-03T15:52:16.634Z,3.55
2022-08-03T15:54:43.253Z,2.65
2022-08-03T15:57:09.804Z,2.50
2022-08-03T15:59:36.314Z,3.10
2022-08-03T16:02:03.143Z,2.70
2022-08-03T16:04:29.915Z,3.08
2022-08-03T16:06:56.413Z,3.35
2022-08-03T16:09:43.262Z,3.45
2022-08-03T16:12:15.927Z,3.70
2022-08-03T16:14:52.538Z,2.60
2022-08-03T16:17:20.627Z,2.50
2022-08-03T16:19:47.488Z,2.45
2022-08-03T16:22:14.419Z,2.50
2022-08-03T16:24:41.566Z,2.80
2022-08-03T16:27:37.565Z,2.58
2022-08-03T16:29:54.888Z,2.30
2022-08-03T16:32:21.701Z,2.97
2022-08-03T16:34:48.287Z,2.22
2022-08-03T16:37:37.730Z,3.38
2022-08-03T16:40:02.285Z,2.65
2022-08-03T16:42:28.876Z,2.50
2022-08-03T16:44:55.441Z,2.33
2022-08-03T16:47:22.925Z,2.22
2022-08-03T16:49:55.543Z,2.22
2022-08-03T16:52:23.072Z,2.60
2022-08-03T16:54:53.902Z,2.28
2022-08-03T16:57:59.440Z,2.50
2022-08-03T17:00:34.002Z,2.40
2022-08-03T17:03:04.348Z,2.08
2022-08-03T17:05:43.661Z,2.35
2022-08-03T17:08:14.497Z,2.20
2022-08-03T17:10:45.202Z,2.30
2022-08-03T17:13:13.019Z,2.30
2022-08-03T17:15:58.078Z,2.40
2022-08-03T17:18:26.626Z,2.42
2022-08-03T17:20:55.802Z,2.30
2022-08-03T17:28:51.422Z,2.47
2022-08-03T17:31:31.795Z,2.40
2022-08-03T17:34:01.582Z,2.42
2022-08-03T17:36:53.936Z,2.50
2022-08-03T17:39:23.555Z,2.47
2022-08-03T17:42:01.233Z,2.40
2022-08-03T17:44:33.132Z,2.15
2022-08-03T17:47:08.104Z,2.20
2022-08-03T17:49:39.798Z,2.15
2022-08-03T17:52:51.635Z,2.47
2022-08-03T17:55:56.383Z,2.53
2022-08-03T17:58:28.658Z,2.25
2022-08-03T18:02:00.500Z,2.42
2022-08-03T18:04:10.954Z,2.45
2022-08-03T18:06:55.833Z,2.22
2022-08-03T18:10:03.806Z,2.30
2022-08-03T18:12:26.200Z,2.15
2022-08-03T18:15:01.318Z,3.53
2022-08-03T18:17:58.167Z,2.60
2022-08-03T18:20:32.207Z,2.75
2022-08-03T18:23:06.010Z,2.38
2022-08-03T18:25:43.098Z,2.70
2022-08-03T18:28:14.327Z,2.33
2022-08-03T18:30:54.574Z,3.22
2022-08-03T18:34:17.378Z,2.30
2022-08-03T18:36:17.266Z,2.63
2022-08-03T18:38:49.229Z,2.42
2022-08-03T18:41:31.803Z,2.42
2022-08-03T18:44:08.590Z,2.78
2022-08-03T18:46:42.189Z,2.50
2022-08-03T18:49:14.429Z,2.28
2022-08-03T18:51:46.567Z,2.70
2022-08-03T18:54:58.928Z,3.25
2022-08-03T18:57:44.739Z,3.17
2022-08-03T19:00:16.257Z,2.80
2022-08-03T19:05:21.722Z,2.63
2022-08-03T19:08:04.048Z,2.50
2022-08-03T19:10:36.735Z,2.50
2022-08-03T19:13:11.483Z,2.25
2022-08-03T19:15:51.435Z,2.78
2022-08-03T19:18:21.047Z,2.38
2022-08-03T19:20:53.281Z,2.42
2022-08-03T19:23:25.220Z,2.50
2022-08-03T19:25:53.791Z,2.58
2022-08-03T19:28:29.955Z,2.53
2022-08-03T19:30:57.250Z,2.50
2022-08-03T19:33:26.626Z,2.67
2022-08-03T19:35:57.794Z,2.35
2022-08-03T19:38:28.594Z,2.40
2022-08-03T19:41:03.789Z,2.38
2022-08-03T19:43:53.836Z,3.30
2022-08-03T19:46:30.151Z,2.63
2022-08-03T19:49:15.185Z,2.10
2022-08-03T19:52:01.287Z,2.65
2022-08-03T19:54:45.658Z,2.65
2022-08-03T19:57:24.239Z,2.50
2022-08-03T19:59:52.474Z,2.40
2022-08-03T20:02:26.597Z,2.35
2022-08-03T20:04:57.539Z,2.58
2022-08-03T20:07:29.396Z,2.60
2022-08-03T20:09:57.246Z,3.28
2022-08-03T20:12:27.509Z,2.78
2022-08-03T20:14:58.616Z,2.80
2022-08-03T20:17:55.868Z,3.63
2022-08-03T20:20:13.585Z,3.50
2022-08-03T20:22:45.495Z,3.40
2022-08-03T20:25:19.805Z,4.18
2022-08-03T20:28:06.668Z,3.63
2022-08-03T20:30:35.469Z,3.22
2022-08-03T20:33:02.009Z,4.38
2022-08-03T20:35:30.169Z,3.88
2022-08-03T20:37:57.892Z,3.42
2022-08-03T20:40:27.343Z,3.70
2022-08-03T20:42:55.295Z,3.80
2022-08-03T20:45:59.683Z,4.70
2022-08-03T20:48:10.131Z,4.20
2022-08-03T20:50:38.729Z,3.50
2022-08-03T20:53:07.751Z,3.78
2022-08-03T20:55:47.839Z,5.43
2022-08-03T20:58:25.703Z,5.75
2022-08-03T21:00:53.795Z,5.10
2022-08-03T21:03:20.383Z,4.35
2022-08-03T21:05:51.889Z,4.50
2022-08-03T21:08:22.499Z,3.55
2022-08-03T21:10:52.701Z,3.97
2022-08-03T21:13:47.141Z,4.22
2022-08-03T21:16:15.318Z,3.38
2022-08-03T21:18:53.022Z,3.70
2022-08-03T21:21:23.591Z,3.90
2022-08-03T21:23:53.378Z,5.10
2022-08-03T21:26:25.219Z,4.65
2022-08-03T21:28:54.779Z,3.47
2022-08-03T21:31:24.297Z,3.92
2022-08-03T21:34:02.339Z,4.50
2022-08-03T21:36:32.217Z,4.32
2022-08-03T21:38:59.514Z,4.75
2022-08-03T21:41:30.807Z,5.45
2022-08-03T21:43:58.313Z,5.57
2022-08-03T21:46:26.704Z,4.30
2022-08-03T21:48:56.409Z,4.35
2022-08-03T21:51:42.963Z,4.80
2022-08-03T21:54:11.049Z,4.80
2022-08-03T21:56:47.247Z,4.38
2022-08-03T21:59:17.544Z,3.85
2022-08-03T22:01:49.224Z,4.60
2022-08-03T22:04:50.692Z,4.00
2022-08-03T22:07:08.590Z,3.80
2022-08-03T22:09:36.623Z,4.57
2022-08-03T22:12:04.734Z,4.38
2022-08-03T22:14:35.242Z,4.38
2022-08-03T22:17:06.318Z,5.07
2022-08-03T22:19:34.337Z,4.53
2022-08-03T22:22:06.490Z,4.03
2022-08-03T22:24:35.976Z,4.30
2022-08-03T22:27:22.221Z,4.10
2022-08-03T22:29:50.992Z,4.85
2022-08-03T22:32:18.430Z,4.38
2022-08-03T22:34:47.941Z,4.25
2022-08-03T22:37:18.169Z,4.07
2022-08-03T22:39:46.369Z,4.18
2022-08-03T22:42:13.694Z,4.30
2022-08-03T22:44:40.870Z,4.45
2022-08-03T22:47:09.534Z,4.07
2022-08-03T22:49:37.917Z,4.97
2022-08-03T22:52:07.585Z,4.78
2022-08-03T22:54:35.541Z,4.22
2022-08-03T22:57:02.168Z,4.55
2022-08-03T22:59:40.195Z,4.28
2022-08-03T23:02:20.531Z,4.30
2022-08-03T23:04:55.336Z,4.55
2022-08-03T23:07:30.072Z,4.85
2022-08-03T23:09:58.216Z,4.90
2022-08-03T23:12:25.285Z,4.82
2022-08-03T23:14:54.762Z,4.82
2022-08-03T23:17:23.251Z,5.18
2022-08-03T23:19:55.765Z,4.82
2022-08-03T23:22:30.187Z,4.45
2022-08-03T23:24:58.619Z,4.82
2022-08-03T23:27:26.885Z,4.65
2022-08-03T23:29:53.997Z,4.90
2022-08-03T23:32:21.274Z,4.68
2022-08-03T23:35:08.083Z,4.20
2022-08-03T23:38:04.297Z,4.68
2022-08-03T23:40:31.225Z,4.68
2022-08-03T23:42:58.430Z,4.90
2022-08-03T23:45:26.587Z,5.03
2022-08-03T23:47:53.319Z,5.10
2022-08-03T23:50:20.018Z,5.00
2022-08-03T23:53:16.741Z,4.68
2022-08-03T23:56:10.218Z,4.95
2022-08-03T23:58:54.937Z,4.32
